Airfield :
LOGIN :

Register | Disclaimer

   EN    FR    IT 

 










Legend :    VFR   Marginal VFR   IFR   Intensive IFR   Very Intensive IFR
Visi :
Ceiling :
>= 8 km
>= 3000ft
5 to 8 km
1000 to 3000 ft
1500m to 5 km
500 to 1000 ft
800 to 1500m
200 to 500 ft
< 800m
< 200 ft
Symbols :   Thunderstorms  Fog  Heavy snow  Heavy precipitations  Wind > 20 kt
SIGMETs :     Misc.  Thunderstorms  Icing  Turbulence  Mountain Waves  Volcanic Ashes






- Airport Elevation : 1906 ft
- IATA code : INN


LOWI - Innsbruck

CURRENT METAR :
  • 202050Z AUTO VRB02KT 9999 NCD 18/16 Q1013 NOSIG

EXPIRED METARs :
  • 202020Z AUTO VRB01KT 9999 NCD 19/16 Q1012 NOSIG
  • 201950Z AUTO VRB01KT 9999 NCD 19/17 Q1012 NOSIG
  • 201920Z VRB01KT 9999 NSC 20/17 Q1012 NOSIG
  • 201850Z AUTO VRB01KT 9999 NCD 21/17 Q1012 NOSIG
  • 201820Z AUTO VRB02KT 9999 NCD 22/17 Q1012 NOSIG
  • 201750Z AUTO VRB01KT 9999 NCD 24/18 Q1012 NOSIG
  • 201720Z 18003KT 150V210 CAVOK 24/18 Q1012 NOSIG
  • 201650Z AUTO VRB02KT 9999 NCD 25/19 Q1012 NOSIG
  • 201620Z AUTO 28004KT 9999 NCD 25/16 Q1012 NOSIG
  • 201550Z AUTO 28005KT 9999 NCD 25/17 Q1012 NOSIG

TAF TAF LOWI
Valid from the 20 at 18:00 until the 21 at 18:00 UTC


201715Z 2018/2118 VRB04KT CAVOK TX29/2113Z TN15/2104Z
TEMPO 2112/2117 27012KT SHRA
PROB40
TEMPO 2112/2115 27015G35KT TSRA FEW040CB BKN050



MET'MAP, your aeronautical weather chart ! - Copyright ORBIFLY December 2007 - Disclaimer

ORBIFLY MET'MAP TEAM :

Programming & Development : Alexandra Zaïnal
Original concept : Baudouin d'Aumeries
Technical & hardware support : Manuel Goepfert
Assistance : Marc-Olivier Méhu




SOURCES & CREDITS :

   NOAA